createdAt,value
2023-04-11T00:03:20.455Z,4.55
2023-04-11T00:07:22.357Z,5.80
2023-04-11T00:11:24.285Z,2.78
2023-04-11T00:15:26.673Z,5.00
2023-04-11T00:19:28.810Z,5.85
2023-04-11T00:23:30.652Z,4.40
2023-04-11T00:27:32.336Z,3.17
2023-04-11T00:31:35.386Z,4.20
2023-04-11T00:35:39.292Z,6.03
2023-04-11T00:39:41.034Z,4.95
2023-04-11T00:43:42.710Z,8.18
2023-04-11T00:47:44.537Z,5.47
2023-04-11T00:51:46.215Z,5.57
2023-04-11T00:55:48.247Z,11.43
2023-04-11T00:59:51.396Z,10.07
2023-04-11T01:03:53.673Z,11.68
2023-04-11T01:07:56.200Z,8.40
2023-04-11T01:11:59.445Z,10.10
2023-04-11T01:16:01.393Z,14.52
2023-04-11T01:20:05.336Z,12.70
2023-04-11T01:24:07.584Z,12.82
2023-04-11T01:28:09.849Z,9.23
2023-04-11T01:32:11.483Z,13.45
2023-04-11T01:36:13.372Z,11.25
2023-04-11T01:40:18.214Z,17.62
2023-04-11T01:44:20.796Z,12.50
2023-04-11T01:48:22.570Z,16.08
2023-04-11T01:52:24.290Z,11.95
2023-04-11T01:56:25.997Z,13.75
2023-04-11T02:00:27.641Z,14.38
2023-04-11T02:04:29.540Z,13.50
2023-04-11T02:08:31.610Z,13.70
2023-04-11T02:12:33.749Z,15.75
2023-04-11T02:16:54.092Z,14.13
2023-04-11T02:20:55.789Z,22.52
2023-04-11T02:24:57.425Z,19.25
2023-04-11T02:28:59.537Z,13.65
2023-04-11T02:33:01.544Z,16.08
2023-04-11T02:37:03.254Z,15.50
2023-04-11T02:41:05.904Z,20.25
2023-04-11T02:45:08.267Z,17.23
2023-04-11T02:49:10.134Z,19.62
2023-04-11T02:53:12.100Z,19.00
2023-04-11T02:57:13.805Z,24.12
2023-04-11T03:01:17.016Z,20.65
2023-04-11T03:05:18.753Z,20.35
2023-04-11T03:09:21.315Z,21.75
2023-04-11T03:13:23.097Z,16.42
2023-04-11T03:17:24.746Z,22.05
2023-04-11T03:21:27.194Z,20.02
2023-04-11T03:25:29.589Z,21.67
2023-04-11T03:29:32.464Z,26.35
2023-04-11T03:33:34.163Z,17.20
2023-04-11T03:37:36.405Z,25.55
2023-04-11T03:41:38.137Z,19.23
2023-04-11T03:45:39.782Z,19.55
2023-04-11T03:49:41.408Z,14.10
2023-04-11T03:53:43.048Z,22.60
2023-04-11T03:57:44.689Z,17.83
2023-04-11T04:01:46.393Z,16.10
2023-04-11T04:05:48.397Z,24.83
2023-04-11T04:09:50.610Z,19.37
2023-04-11T04:13:52.291Z,19.92
2023-04-11T04:17:54.050Z,18.87
2023-04-11T04:21:58.185Z,22.13
2023-04-11T04:26:02.020Z,28.05
2023-04-11T04:30:04.666Z,18.45
2023-04-11T04:34:10.531Z,19.12
2023-04-11T04:38:17.222Z,21.48
2023-04-11T04:42:18.872Z,15.85
2023-04-11T04:46:20.779Z,15.18
2023-04-11T04:50:22.530Z,16.02
2023-04-11T04:54:24.297Z,17.70
2023-04-11T04:58:27.381Z,18.17
2023-04-11T05:02:29.235Z,13.80
2023-04-11T05:06:32.407Z,20.20
2023-04-11T05:10:34.144Z,17.08
2023-04-11T05:14:35.934Z,13.93
2023-04-11T05:18:37.578Z,17.10
2023-04-11T05:22:39.303Z,22.05
2023-04-11T05:26:41.028Z,20.60
2023-04-11T05:30:42.718Z,21.37
2023-04-11T05:34:53.089Z,17.27
2023-04-11T05:38:55.037Z,20.40
2023-04-11T05:42:56.722Z,16.17
2023-04-11T05:46:58.377Z,12.80
2023-04-11T05:51:00.275Z,13.40
2023-04-11T05:55:02.035Z,14.48
2023-04-11T05:59:04.819Z,13.50
2023-04-11T06:03:07.865Z,12.57
2023-04-11T06:07:09.810Z,13.02
2023-04-11T06:11:11.718Z,19.52
2023-04-11T06:15:13.813Z,16.48
2023-04-11T06:19:15.586Z,22.05
2023-04-11T06:23:17.308Z,16.75
2023-04-11T06:27:19.011Z,14.27
2023-04-11T06:31:20.804Z,11.30
2023-04-11T06:35:24.890Z,11.52
2023-04-11T06:39:26.988Z,11.07
2023-04-11T06:43:28.639Z,17.12
2023-04-11T06:47:30.287Z,16.77
2023-04-11T06:51:32.298Z,16.87
2023-04-11T06:55:33.945Z,9.90
2023-04-11T06:59:35.596Z,18.62
2023-04-11T07:03:37.815Z,11.15
2023-04-11T07:07:39.796Z,11.52
2023-04-11T07:11:41.767Z,12.52
2023-04-11T07:15:43.428Z,16.83
2023-04-11T07:19:45.126Z,13.62
2023-04-11T07:23:46.958Z,14.75
2023-04-11T07:27:51.421Z,24.00
2023-04-11T07:31:53.407Z,17.27
2023-04-11T07:35:55.668Z,11.88
2023-04-11T07:39:57.316Z,12.65
2023-04-11T07:43:58.974Z,19.00
2023-04-11T07:48:00.858Z,8.05
2023-04-11T07:52:02.842Z,10.75
2023-04-11T07:56:05.007Z,19.35
2023-04-11T08:00:11.414Z,11.88
2023-04-11T08:04:13.692Z,14.45
2023-04-11T08:08:16.478Z,14.52
2023-04-11T08:12:18.127Z,11.05
2023-04-11T08:16:19.858Z,7.87
2023-04-11T08:20:22.173Z,14.45
2023-04-11T08:24:23.850Z,12.30
2023-04-11T08:28:25.541Z,16.77
2023-04-11T08:32:27.314Z,13.70
2023-04-11T08:36:29.951Z,8.73
2023-04-11T08:40:32.231Z,9.48
2023-04-11T08:44:34.051Z,7.80
2023-04-11T08:48:36.072Z,11.25
2023-04-11T08:52:39.394Z,11.90
2023-04-11T08:56:43.009Z,8.23
2023-04-11T09:00:45.214Z,9.95
2023-04-11T09:04:47.576Z,6.78
2023-04-11T09:08:49.542Z,9.43
2023-04-11T09:12:51.458Z,6.72
2023-04-11T09:16:55.658Z,9.55
2023-04-11T09:21:03.000Z,8.88
2023-04-11T09:29:06.465Z,13.65
2023-04-11T09:33:22.911Z,7.62
2023-04-11T09:37:24.694Z,9.48
2023-04-11T09:41:33.928Z,8.95
2023-04-11T09:45:47.809Z,6.00
2023-04-11T09:49:58.628Z,6.78
2023-04-11T09:54:02.063Z,6.03
2023-04-11T09:58:06.101Z,6.03
2023-04-11T10:02:08.146Z,5.07
2023-04-11T10:06:14.101Z,8.02
2023-04-11T10:10:20.436Z,8.55
2023-04-11T10:14:37.318Z,7.37
2023-04-11T10:19:00.316Z,6.40
2023-04-11T10:23:02.273Z,5.53
2023-04-11T10:27:04.806Z,6.12
2023-04-11T10:31:13.942Z,6.93
2023-04-11T10:35:18.356Z,7.00
2023-04-11T10:39:52.021Z,4.65
2023-04-11T10:44:19.406Z,6.30
2023-04-11T10:48:21.222Z,6.80
2023-04-11T10:52:24.060Z,5.25
2023-04-11T10:56:46.718Z,7.12
2023-04-11T11:00:54.193Z,5.80
2023-04-11T11:04:56.215Z,6.47
2023-04-11T11:08:59.459Z,10.00
2023-04-11T11:13:01.131Z,8.32
2023-04-11T11:17:03.080Z,6.25
2023-04-11T11:21:07.372Z,4.75
2023-04-11T11:25:11.148Z,6.05
2023-04-11T11:29:13.128Z,4.68
2023-04-11T11:33:17.767Z,6.55
2023-04-11T11:37:19.896Z,11.00
2023-04-11T11:41:21.790Z,9.68
2023-04-11T11:45:23.772Z,5.72
2023-04-11T11:49:25.481Z,5.57
2023-04-11T11:53:27.094Z,4.03
2023-04-11T11:57:28.829Z,7.20
2023-04-11T12:01:32.585Z,5.93
2023-04-11T12:05:34.898Z,12.95
2023-04-11T12:09:36.890Z,6.72
2023-04-11T12:13:38.565Z,5.37
2023-04-11T12:17:40.851Z,7.00
2023-04-11T12:21:42.539Z,7.43
2023-04-11T12:25:44.501Z,10.18
2023-04-11T12:29:49.252Z,6.35
2023-04-11T12:33:50.930Z,4.82
2023-04-11T12:37:52.641Z,4.15
2023-04-11T12:41:54.318Z,7.00
2023-04-11T12:45:56.094Z,6.28
2023-04-11T12:49:57.830Z,4.40
2023-04-11T12:53:59.474Z,7.93
2023-04-11T12:58:02.048Z,5.50
2023-04-11T13:02:03.907Z,3.55
2023-04-11T13:06:06.060Z,8.20
2023-04-11T13:10:08.384Z,7.53
2023-04-11T13:14:10.261Z,6.60
2023-04-11T13:18:11.943Z,4.72
2023-04-11T13:22:13.651Z,4.45
2023-04-11T13:26:15.296Z,9.18
2023-04-11T13:30:17.045Z,3.72
2023-04-11T13:34:18.826Z,5.10
2023-04-11T13:38:20.611Z,5.60
2023-04-11T13:42:22.459Z,5.85
2023-04-11T13:46:24.170Z,4.03
2023-04-11T13:50:25.849Z,6.18
2023-04-11T13:54:27.495Z,5.05
2023-04-11T13:58:32.368Z,4.68
2023-04-11T14:02:34.061Z,5.20
2023-04-11T14:06:37.419Z,4.72
2023-04-11T14:10:39.147Z,4.25
2023-04-11T14:14:40.814Z,4.95
2023-04-11T14:18:42.541Z,2.90
2023-04-11T14:22:44.970Z,3.87
2023-04-11T14:26:46.649Z,4.53
2023-04-11T14:30:48.471Z,5.57
2023-04-11T14:34:52.165Z,5.37
2023-04-11T14:38:53.802Z,4.53
2023-04-11T14:42:58.350Z,5.53
2023-04-11T14:47:00.369Z,3.87
2023-04-11T14:51:05.386Z,5.75
2023-04-11T14:55:07.940Z,6.40
2023-04-11T14:59:11.347Z,7.07
2023-04-11T15:03:13.256Z,5.45
2023-04-11T15:07:14.970Z,5.07
2023-04-11T15:11:16.656Z,5.95
2023-04-11T15:15:18.537Z,5.47
2023-04-11T15:19:20.180Z,5.75
2023-04-11T15:23:22.051Z,6.15
2023-04-11T15:27:23.863Z,8.18
2023-04-11T15:31:26.533Z,5.30
2023-04-11T15:35:28.852Z,6.87
2023-04-11T15:39:30.807Z,10.65
2023-04-11T15:43:32.900Z,3.70
2023-04-11T15:47:34.729Z,6.97
2023-04-11T15:51:36.415Z,3.83
2023-04-11T15:55:40.623Z,4.18
2023-04-11T15:59:42.276Z,5.18
2023-04-11T16:03:44.973Z,6.80
2023-04-11T16:07:47.837Z,5.50
2023-04-11T16:11:49.499Z,7.00
2023-04-11T16:15:51.251Z,7.68
2023-04-11T16:19:53.551Z,7.70
2023-04-11T16:23:55.832Z,6.12
2023-04-11T16:27:57.872Z,7.82
2023-04-11T16:31:59.523Z,5.45
2023-04-11T16:36:01.455Z,4.62
2023-04-11T16:40:07.731Z,6.62
2023-04-11T16:44:11.344Z,6.47
2023-04-11T16:48:13.139Z,5.37
2023-04-11T16:52:14.792Z,5.12
2023-04-11T16:56:19.461Z,6.25
2023-04-11T17:00:21.360Z,10.45
2023-04-11T17:04:23.092Z,4.70
2023-04-11T17:08:26.348Z,8.02
2023-04-11T17:12:28.151Z,4.35
2023-04-11T17:16:29.906Z,7.82
2023-04-11T17:20:31.683Z,6.70
2023-04-11T17:24:33.411Z,7.30
2023-04-11T17:28:35.371Z,9.45
2023-04-11T17:32:38.310Z,12.37
2023-04-11T17:36:42.762Z,15.25
2023-04-11T17:40:44.626Z,11.85
2023-04-11T17:44:46.362Z,8.63
2023-04-11T17:48:47.948Z,6.68
2023-04-11T17:52:49.593Z,9.35
2023-04-11T17:56:52.453Z,8.68
2023-04-11T18:00:56.631Z,7.87
2023-04-11T18:04:59.410Z,10.48
2023-04-11T18:09:02.319Z,7.53
2023-04-11T18:13:04.003Z,6.90
2023-04-11T18:17:05.706Z,7.65
2023-04-11T18:21:07.996Z,7.68
2023-04-11T18:25:10.121Z,7.35
2023-04-11T18:29:11.751Z,7.40
2023-04-11T18:33:13.446Z,6.30
2023-04-11T18:37:15.221Z,6.55
2023-04-11T18:41:17.692Z,7.55
2023-04-11T18:45:22.957Z,7.47
2023-04-11T18:49:24.645Z,6.70
2023-04-11T18:53:28.157Z,10.65
2023-04-11T18:57:33.831Z,8.20
2023-04-11T19:01:36.989Z,4.32
2023-04-11T19:05:39.029Z,7.40
2023-04-11T19:09:40.762Z,4.78
2023-04-11T19:13:42.363Z,7.22
2023-04-11T19:17:44.070Z,6.30
2023-04-11T19:21:45.840Z,8.93
2023-04-11T19:25:47.564Z,5.55
2023-04-11T19:29:49.265Z,7.40
2023-04-11T19:33:52.189Z,10.20
2023-04-11T19:37:53.898Z,7.85
2023-04-11T19:41:55.995Z,8.40
2023-04-11T19:45:57.763Z,8.07
2023-04-11T19:50:00.475Z,12.65
2023-04-11T19:54:02.710Z,5.32
2023-04-11T19:58:04.313Z,6.78
2023-04-11T20:02:06.238Z,10.80
2023-04-11T20:06:09.320Z,7.50
2023-04-11T20:10:11.797Z,11.45
2023-04-11T20:14:13.455Z,10.10
2023-04-11T20:18:15.609Z,8.15
2023-04-11T20:22:18.933Z,12.20
2023-04-11T20:26:21.678Z,7.07
2023-04-11T20:30:23.394Z,5.43
2023-04-11T20:34:25.267Z,7.72
2023-04-11T20:38:27.513Z,6.18
2023-04-11T20:42:31.430Z,9.15
2023-04-11T20:46:33.466Z,7.10
2023-04-11T20:50:35.838Z,10.40
2023-04-11T20:54:37.692Z,4.87
2023-04-11T20:58:39.383Z,5.80
2023-04-11T21:02:43.864Z,7.57
2023-04-11T21:06:46.039Z,11.05
2023-04-11T21:10:47.692Z,9.60
2023-04-11T21:14:49.306Z,7.90
2023-04-11T21:18:50.953Z,5.22
2023-04-11T21:22:53.424Z,8.73
2023-04-11T21:26:55.132Z,9.68
2023-04-11T21:30:57.031Z,7.78
2023-04-11T21:34:58.675Z,5.35
2023-04-11T21:39:00.283Z,4.47
2023-04-11T21:43:02.613Z,11.20
2023-04-11T21:47:04.647Z,8.82
2023-04-11T21:51:06.735Z,5.20
2023-04-11T21:55:09.215Z,8.38
2023-04-11T21:59:10.993Z,5.62
2023-04-11T22:03:17.869Z,7.90
2023-04-11T22:07:23.957Z,9.70
2023-04-11T22:11:25.668Z,6.22
2023-04-11T22:15:27.324Z,7.35
2023-04-11T22:19:33.686Z,6.90
2023-04-11T22:23:35.842Z,9.90
2023-04-11T22:27:38.152Z,10.85
2023-04-11T22:31:39.824Z,8.27
2023-04-11T22:35:47.454Z,6.37
2023-04-11T22:39:49.804Z,9.18
2023-04-11T22:43:51.454Z,7.47
2023-04-11T22:47:59.793Z,8.63
2023-04-11T22:52:02.101Z,7.22
2023-04-11T22:56:04.117Z,7.78
2023-04-11T23:00:07.320Z,10.32
2023-04-11T23:04:09.038Z,10.15
2023-04-11T23:08:10.801Z,5.18
2023-04-11T23:12:12.770Z,13.10
2023-04-11T23:16:14.659Z,5.50
2023-04-11T23:20:17.510Z,10.68
2023-04-11T23:24:19.170Z,5.65
2023-04-11T23:28:20.949Z,7.15
2023-04-11T23:32:22.789Z,6.62
2023-04-11T23:36:24.750Z,10.32
2023-04-11T23:40:26.501Z,9.43
2023-04-11T23:44:28.191Z,8.80
2023-04-11T23:48:29.939Z,6.78
2023-04-11T23:52:31.868Z,9.48
2023-04-11T23:56:33.660Z,7.20
